Hlavní strana
METAR-TAF:

METAR-TAF

Letiště :

Souillac

Brive-la-Gaillarde, Francie

zeměpisná šířka: 45-02-28N, zeměpisná délka: 001-28-59E, výška: 311 m

Aktuální stav počasí

Zpráva byla vytvořena před 38 minutami, v 20:30 UTC
Jihojihovýchodní vítr 6 kt
Teplota 15°C
Vlhkost vzduchu 36%
Tlak 1017 hPa
Viditelnost 10 km a více
Žádná oblačnost pod 1500 m, nevyskytují se cumulonimby.

METAR: LFSL 042030Z AUTO 15006KT CAVOK 15/00 Q1017

Čas: 23:08 (21:08 UTC)


TAF: chybějící

Stav a předpovědi počasí z více než 4 000 letišť (zprávy METAR a TAF).

Červené a žluté tečky na mapě představují dostupné meteorologické stanice.

Když kurzor umístíte na tečku, zobrazí se název stanice.

Pak kliknutím zobrazíte stav a předpověď počasí.

Chcete-li změnit mapu, kliknutím na zelené tlačítko se znaménkem +mapu přiblížíte, kliknutím na zelené tlačítko se znaménkem – mapu oddálíte a kliknutím na zelené šipky přejdete na sousední mapy.


METAR-TAF: